createdAt,value
2018-05-16T00:01:19.684Z,24.83
2018-05-16T00:04:01.852Z,47.77
2018-05-16T00:06:42.190Z,54.27
2018-05-16T00:09:23.261Z,50.70
2018-05-16T00:12:04.216Z,49.83
2018-05-16T00:14:45.315Z,52.37
2018-05-16T00:17:25.791Z,43.50
2018-05-16T00:20:06.279Z,42.77
2018-05-16T00:22:46.706Z,46.93
2018-05-16T00:25:27.091Z,39.70
2018-05-16T00:28:08.321Z,47.03
2018-05-16T00:30:48.779Z,40.87
2018-05-16T00:33:29.209Z,33.57
2018-05-16T00:36:09.517Z,26.83
2018-05-16T00:38:49.833Z,26.57
2018-05-16T00:41:31.201Z,26.40
2018-05-16T00:44:12.236Z,28.63
2018-05-16T00:46:53.213Z,28.43
2018-05-16T00:49:33.788Z,31.03
2018-05-16T00:52:14.894Z,28.77
2018-05-16T00:54:55.909Z,26.40
2018-05-16T00:57:36.256Z,29.63
2018-05-16T01:00:16.595Z,29.20
2018-05-16T01:02:56.852Z,29.70
2018-05-16T01:05:37.364Z,27.20
2018-05-16T01:08:17.669Z,29.23
2018-05-16T01:10:57.983Z,30.13
2018-05-16T01:13:38.388Z,33.87
2018-05-16T01:16:18.905Z,30.43
2018-05-16T01:18:59.264Z,32.33
2018-05-16T01:21:41.090Z,34.23
2018-05-16T01:24:21.412Z,33.93
2018-05-16T01:27:02.605Z,33.63
2018-05-16T01:29:43.020Z,31.30
2018-05-16T01:32:23.950Z,38.27
2018-05-16T01:35:04.502Z,30.03
2018-05-16T01:37:45.606Z,39.60
2018-05-16T01:40:26.473Z,32.27
2018-05-16T01:43:06.800Z,31.60
2018-05-16T01:45:47.301Z,35.13
2018-05-16T01:48:27.575Z,33.70
2018-05-16T01:51:07.777Z,30.67
2018-05-16T01:53:48.859Z,30.10
2018-05-16T01:56:29.786Z,27.33
2018-05-16T02:02:32.500Z,29.53
2018-05-16T02:05:12.821Z,27.57
2018-05-16T02:07:53.205Z,24.07
2018-05-16T02:10:34.305Z,27.40
2018-05-16T02:13:15.321Z,34.40
2018-05-16T02:15:57.460Z,27.67
2018-05-16T02:18:38.583Z,25.33
2018-05-16T02:21:21.816Z,28.07
2018-05-16T02:24:02.269Z,24.53
2018-05-16T02:26:42.626Z,30.40
2018-05-16T02:29:23.092Z,26.07
2018-05-16T02:32:05.693Z,31.13
2018-05-16T02:34:46.224Z,25.17
2018-05-16T02:37:26.633Z,29.17
2018-05-16T02:40:08.760Z,29.03
2018-05-16T02:42:49.191Z,23.63
2018-05-16T02:45:30.905Z,24.03
2018-05-16T02:48:12.796Z,23.33
2018-05-16T02:50:53.976Z,23.37
2018-05-16T02:53:34.440Z,23.40
2018-05-16T02:56:14.885Z,23.43
2018-05-16T02:58:55.092Z,21.17
2018-05-16T03:01:35.461Z,21.30
2018-05-16T03:04:15.924Z,23.10
2018-05-16T03:06:57.889Z,18.03
2018-05-16T03:09:39.209Z,16.57
2018-05-16T03:12:22.130Z,16.60
2018-05-16T03:15:02.648Z,14.50
2018-05-16T03:17:43.033Z,11.33
2018-05-16T03:20:24.247Z,12.67
2018-05-16T03:23:05.860Z,13.33
2018-05-16T03:25:47.206Z,12.07
2018-05-16T03:28:27.586Z,14.47
2018-05-16T03:31:07.928Z,11.67
2018-05-16T03:33:48.382Z,13.70
2018-05-16T03:36:30.977Z,15.63
2018-05-16T03:39:11.438Z,15.40
2018-05-16T03:41:52.035Z,17.63
2018-05-16T03:44:32.365Z,20.77
2018-05-16T03:47:12.671Z,14.33
2018-05-16T03:49:53.017Z,11.60
2018-05-16T03:52:34.013Z,12.97
2018-05-16T03:55:15.429Z,10.07
2018-05-16T04:01:27.319Z,10.23
2018-05-16T04:04:21.334Z,12.67
2018-05-16T04:07:02.629Z,11.70
2018-05-16T04:09:42.952Z,10.20
2018-05-16T04:12:24.721Z,9.97
2018-05-16T04:15:05.032Z,11.37
2018-05-16T04:17:45.374Z,11.47
2018-05-16T04:20:26.484Z,10.57
2018-05-16T04:23:06.846Z,10.10
2018-05-16T04:25:47.758Z,9.87
2018-05-16T04:28:31.062Z,7.33
2018-05-16T04:31:11.376Z,7.70
2018-05-16T04:33:52.020Z,9.97
2018-05-16T04:36:33.123Z,8.87
2018-05-16T04:39:13.576Z,10.20
2018-05-16T04:41:54.340Z,10.63
2018-05-16T04:44:34.800Z,14.83
2018-05-16T04:47:18.732Z,14.87
2018-05-16T04:49:59.755Z,14.53
2018-05-16T04:52:40.115Z,14.63
2018-05-16T04:55:22.133Z,12.30
2018-05-16T04:58:02.601Z,15.30
2018-05-16T05:00:42.981Z,13.23
2018-05-16T05:03:24.340Z,18.30
2018-05-16T05:06:04.825Z,12.13
2018-05-16T05:08:45.036Z,13.23
2018-05-16T05:11:25.405Z,13.30
2018-05-16T05:14:05.763Z,12.10
2018-05-16T05:16:46.095Z,12.43
2018-05-16T05:19:27.212Z,12.30
2018-05-16T05:22:07.647Z,13.83
2018-05-16T05:24:47.874Z,9.13
2018-05-16T05:27:29.263Z,10.70
2018-05-16T05:30:09.646Z,9.50
2018-05-16T05:32:50.891Z,14.33
2018-05-16T05:35:31.677Z,12.30
2018-05-16T05:38:12.124Z,14.07
2018-05-16T05:40:53.016Z,15.47
2018-05-16T05:43:33.343Z,11.90
2018-05-16T05:46:13.697Z,12.83
2018-05-16T05:48:54.365Z,14.37
2018-05-16T05:51:35.505Z,13.77
2018-05-16T05:54:15.695Z,9.87
2018-05-16T05:56:56.909Z,14.83
2018-05-16T05:59:37.245Z,11.27
2018-05-16T06:02:17.704Z,11.90
2018-05-16T06:04:58.906Z,14.03
2018-05-16T06:07:39.236Z,12.40
2018-05-16T06:10:22.112Z,12.77
2018-05-16T06:13:02.709Z,16.07
2018-05-16T06:15:43.218Z,13.70
2018-05-16T06:18:25.785Z,14.97
2018-05-16T06:21:06.744Z,18.20
2018-05-16T06:23:47.078Z,13.93
2018-05-16T06:26:31.734Z,15.07
2018-05-16T06:29:14.558Z,19.67
2018-05-16T06:31:57.006Z,13.87
2018-05-16T06:34:38.050Z,16.73
2018-05-16T06:37:19.317Z,15.77
2018-05-16T06:40:00.444Z,13.60
2018-05-16T06:42:41.343Z,13.70
2018-05-16T06:45:23.370Z,11.33
2018-05-16T06:48:08.477Z,11.90
2018-05-16T06:50:48.799Z,13.77
2018-05-16T06:53:30.076Z,13.97
2018-05-16T06:56:10.284Z,12.97
2018-05-16T06:58:54.919Z,14.83
2018-05-16T07:01:37.096Z,14.47
2018-05-16T07:04:17.361Z,11.23
2018-05-16T07:06:57.628Z,14.47
2018-05-16T07:09:43.064Z,15.03
2018-05-16T07:12:24.229Z,15.63
2018-05-16T07:15:05.700Z,14.20
2018-05-16T07:17:46.583Z,18.70
2018-05-16T07:20:27.804Z,14.97
2018-05-16T07:23:08.309Z,13.77
2018-05-16T07:25:48.773Z,14.00
2018-05-16T07:28:29.753Z,16.77
2018-05-16T07:31:10.731Z,11.70
2018-05-16T07:33:51.878Z,14.30
2018-05-16T07:36:37.132Z,13.93
2018-05-16T07:39:17.339Z,11.43
2018-05-16T07:41:57.845Z,12.43
2018-05-16T07:44:38.650Z,13.57
2018-05-16T07:47:24.465Z,11.77
2018-05-16T07:50:04.889Z,17.53
2018-05-16T07:52:45.314Z,10.87
2018-05-16T07:55:25.630Z,9.20
2018-05-16T07:58:07.374Z,11.87
2018-05-16T08:00:47.844Z,13.70
2018-05-16T08:03:29.153Z,11.63
2018-05-16T08:06:10.023Z,13.70
2018-05-16T08:08:51.206Z,10.77
2018-05-16T08:11:39.931Z,11.20
2018-05-16T08:14:20.745Z,8.97
2018-05-16T08:17:02.426Z,10.77
2018-05-16T08:19:43.796Z,13.70
2018-05-16T08:22:25.745Z,10.80
2018-05-16T08:25:08.974Z,9.87
2018-05-16T08:27:50.759Z,10.97
2018-05-16T08:30:31.989Z,8.93
2018-05-16T08:33:14.828Z,11.03
2018-05-16T08:35:55.717Z,12.40
2018-05-16T08:38:38.084Z,14.40
2018-05-16T08:41:18.880Z,18.77
2018-05-16T08:43:59.784Z,20.57
2018-05-16T08:46:41.296Z,23.33
2018-05-16T08:49:24.678Z,16.13
2018-05-16T08:52:05.052Z,11.30
2018-05-16T08:54:56.432Z,10.23
2018-05-16T08:57:37.721Z,11.27
2018-05-16T09:00:17.937Z,10.67
2018-05-16T09:02:59.620Z,9.50
2018-05-16T09:05:44.564Z,8.33
2018-05-16T09:08:25.009Z,6.73
2018-05-16T09:11:06.285Z,10.03
2018-05-16T09:13:47.381Z,7.67
2018-05-16T09:16:27.859Z,7.73
2018-05-16T09:19:09.508Z,8.53
2018-05-16T09:21:51.427Z,6.57
2018-05-16T09:24:31.783Z,7.30
2018-05-16T09:27:13.794Z,8.63
2018-05-16T09:29:55.573Z,7.80
2018-05-16T09:32:37.771Z,10.43
2018-05-16T09:35:18.077Z,9.60
2018-05-16T09:38:01.195Z,8.50
2018-05-16T09:40:41.990Z,7.20
2018-05-16T09:43:23.733Z,10.50
2018-05-16T09:46:04.241Z,11.40
2018-05-16T09:48:44.677Z,8.97
2018-05-16T09:51:25.125Z,8.20
2018-05-16T09:54:06.310Z,11.77
2018-05-16T09:56:48.395Z,8.80
2018-05-16T09:59:30.468Z,10.03
2018-05-16T10:02:10.779Z,9.90
2018-05-16T10:04:51.788Z,9.70
2018-05-16T10:07:32.216Z,9.73
2018-05-16T10:10:18.570Z,10.20
2018-05-16T10:12:58.910Z,12.90
2018-05-16T10:15:41.446Z,12.83
2018-05-16T10:18:22.904Z,13.73
2018-05-16T10:21:03.332Z,15.23
2018-05-16T10:23:45.487Z,16.47
2018-05-16T10:26:27.605Z,13.07
2018-05-16T10:29:08.559Z,14.83
2018-05-16T10:31:49.128Z,15.57
2018-05-16T10:34:29.565Z,15.03
2018-05-16T10:37:10.850Z,13.50
2018-05-16T10:39:56.819Z,12.03
2018-05-16T10:42:38.528Z,16.00
2018-05-16T10:45:22.027Z,10.60
2018-05-16T10:48:03.135Z,11.03
2018-05-16T10:50:43.712Z,10.83
2018-05-16T10:53:26.418Z,9.23
2018-05-16T10:56:08.668Z,12.17
2018-05-16T10:58:51.741Z,11.07
2018-05-16T11:01:32.260Z,11.20
2018-05-16T11:04:13.350Z,10.43
2018-05-16T11:06:54.648Z,11.97
2018-05-16T11:09:35.015Z,7.93
2018-05-16T11:12:15.408Z,9.53
2018-05-16T11:14:57.408Z,9.57
2018-05-16T11:17:38.685Z,9.23
2018-05-16T11:20:20.569Z,7.17
2018-05-16T11:23:03.297Z,9.97
2018-05-16T11:25:43.458Z,8.93
2018-05-16T11:28:24.224Z,8.47
2018-05-16T11:31:05.111Z,8.07
2018-05-16T11:33:50.551Z,7.47
2018-05-16T11:36:30.940Z,9.53
2018-05-16T11:39:11.079Z,7.20
2018-05-16T11:41:51.628Z,7.60
2018-05-16T11:44:33.130Z,10.10
2018-05-16T11:47:14.509Z,9.60
2018-05-16T11:49:55.427Z,9.87
2018-05-16T11:52:35.938Z,10.07
2018-05-16T11:55:18.133Z,8.33
2018-05-16T11:58:00.589Z,9.17
2018-05-16T12:00:41.041Z,7.77
2018-05-16T12:03:21.959Z,13.77
2018-05-16T12:06:02.162Z,10.53
2018-05-16T12:08:42.605Z,11.63
2018-05-16T12:11:23.859Z,10.67
2018-05-16T12:14:04.053Z,13.93
2018-05-16T12:16:45.916Z,18.03
2018-05-16T12:19:27.662Z,21.60
2018-05-16T12:22:07.892Z,22.20
2018-05-16T12:24:51.889Z,19.80
2018-05-16T12:27:32.577Z,20.10
2018-05-16T12:30:12.933Z,19.70
2018-05-16T12:32:55.435Z,17.97
2018-05-16T12:35:37.621Z,19.67
2018-05-16T12:38:18.700Z,18.57
2018-05-16T12:40:59.147Z,16.03
2018-05-16T12:43:41.650Z,15.87
2018-05-16T12:46:22.997Z,17.83
2018-05-16T12:49:04.187Z,20.17
2018-05-16T12:51:45.713Z,14.23
2018-05-16T12:54:27.013Z,17.77
2018-05-16T12:57:08.450Z,15.80
2018-05-16T12:59:50.712Z,14.83
2018-05-16T13:02:37.221Z,14.80
2018-05-16T13:05:17.565Z,17.37
2018-05-16T13:07:57.938Z,16.37
2018-05-16T13:10:38.323Z,15.47
2018-05-16T13:13:18.564Z,15.00
2018-05-16T13:15:59.141Z,15.17
2018-05-16T13:18:39.465Z,12.17
2018-05-16T13:21:20.816Z,14.20
2018-05-16T13:24:01.740Z,12.10
2018-05-16T13:26:42.117Z,10.33
2018-05-16T13:29:23.394Z,11.53
2018-05-16T13:32:03.768Z,10.63
2018-05-16T13:34:44.105Z,9.30
2018-05-16T13:37:29.385Z,11.33
2018-05-16T13:40:09.813Z,10.40
2018-05-16T13:42:51.624Z,9.23
2018-05-16T13:45:32.727Z,11.27
2018-05-16T13:48:14.283Z,9.87
2018-05-16T13:50:57.550Z,11.47
2018-05-16T13:53:38.808Z,9.47
2018-05-16T13:56:21.592Z,9.77
2018-05-16T13:59:02.614Z,8.37
2018-05-16T14:01:44.138Z,14.37
2018-05-16T14:04:24.666Z,8.47
2018-05-16T14:07:04.982Z,9.97
2018-05-16T14:09:47.250Z,11.57
2018-05-16T14:12:28.500Z,8.30
2018-05-16T14:15:12.801Z,9.90
2018-05-16T14:17:53.513Z,9.13
2018-05-16T14:20:33.892Z,12.07
2018-05-16T14:23:14.318Z,9.83
2018-05-16T14:25:54.732Z,8.67
2018-05-16T14:28:35.799Z,9.63
2018-05-16T14:31:17.025Z,8.77
2018-05-16T14:33:57.462Z,11.13
2018-05-16T14:36:37.950Z,9.23
2018-05-16T14:39:20.950Z,8.17
2018-05-16T14:42:02.709Z,10.67
2018-05-16T14:44:44.374Z,10.00
2018-05-16T14:47:29.869Z,7.30
2018-05-16T14:50:11.096Z,7.10
2018-05-16T14:52:51.985Z,7.27
2018-05-16T14:55:32.395Z,7.20
2018-05-16T14:58:14.900Z,8.10
2018-05-16T15:00:55.728Z,8.63
2018-05-16T15:03:37.144Z,8.87
2018-05-16T15:06:17.700Z,6.73
2018-05-16T15:09:03.724Z,7.80
2018-05-16T15:11:44.108Z,6.87
2018-05-16T15:14:24.820Z,7.50
2018-05-16T15:17:05.376Z,6.80
2018-05-16T15:19:50.852Z,7.13
2018-05-16T15:22:31.920Z,6.70
2018-05-16T15:25:14.177Z,7.00
2018-05-16T15:27:54.565Z,8.00
2018-05-16T15:30:35.815Z,9.37
2018-05-16T15:33:18.594Z,9.47
2018-05-16T15:35:59.072Z,11.17
2018-05-16T15:38:40.811Z,10.10
2018-05-16T15:41:22.293Z,11.20
2018-05-16T15:44:02.621Z,11.50
2018-05-16T15:46:43.114Z,12.23
2018-05-16T15:49:24.511Z,14.33
2018-05-16T15:52:06.801Z,15.93
2018-05-16T15:54:47.107Z,15.97
2018-05-16T15:57:27.443Z,14.03
2018-05-16T16:00:07.817Z,15.30
2018-05-16T16:02:48.141Z,15.77
2018-05-16T16:05:34.044Z,19.27
2018-05-16T16:08:20.232Z,16.67
2018-05-16T16:11:02.618Z,21.23
2018-05-16T16:13:42.940Z,18.23
2018-05-16T16:16:23.413Z,18.60
2018-05-16T16:19:05.336Z,25.00
2018-05-16T16:21:45.694Z,25.90
2018-05-16T16:24:26.045Z,28.23
2018-05-16T16:27:06.418Z,27.87
2018-05-16T16:29:46.754Z,31.77
2018-05-16T16:32:27.073Z,32.50
2018-05-16T16:35:08.226Z,31.67
2018-05-16T16:37:48.646Z,33.03
2018-05-16T16:40:29.033Z,34.17
2018-05-16T16:43:14.048Z,24.90
2018-05-16T16:45:57.270Z,29.50
2018-05-16T16:48:39.388Z,29.23
2018-05-16T16:51:20.237Z,30.27
2018-05-16T16:54:04.334Z,30.77
2018-05-16T16:56:45.581Z,31.20
2018-05-16T16:59:26.423Z,28.63
2018-05-16T17:02:07.512Z,23.93
2018-05-16T17:04:50.123Z,26.40
2018-05-16T17:07:31.225Z,26.23
2018-05-16T17:10:12.232Z,26.10
2018-05-16T17:12:54.122Z,27.67
2018-05-16T17:15:43.365Z,24.07
2018-05-16T17:18:24.858Z,23.97
2018-05-16T17:21:08.183Z,22.73
2018-05-16T17:23:52.442Z,25.33
2018-05-16T17:26:33.865Z,23.70
2018-05-16T17:29:14.739Z,23.97
2018-05-16T17:31:58.217Z,24.83
2018-05-16T17:34:41.388Z,26.03
2018-05-16T17:37:23.418Z,25.00
2018-05-16T17:40:04.496Z,27.07
2018-05-16T17:42:45.964Z,24.80
2018-05-16T17:45:26.608Z,25.03
2018-05-16T17:48:10.044Z,20.43
2018-05-16T17:50:52.565Z,21.73
2018-05-16T17:53:32.905Z,18.67
2018-05-16T17:56:14.267Z,20.60
2018-05-16T17:58:56.234Z,22.23
2018-05-16T18:01:38.238Z,27.40
2018-05-16T18:04:25.809Z,24.17
2018-05-16T18:07:06.912Z,23.23
2018-05-16T18:09:47.366Z,22.07
2018-05-16T18:12:27.767Z,20.53
2018-05-16T18:15:27.637Z,22.33
2018-05-16T18:18:09.430Z,21.60
2018-05-16T18:20:50.727Z,22.63
2018-05-16T18:23:32.169Z,20.10
2018-05-16T18:26:12.499Z,20.00
2018-05-16T18:28:53.306Z,21.50
2018-05-16T18:31:34.729Z,22.57
2018-05-16T18:34:16.769Z,21.80
2018-05-16T18:36:58.526Z,19.17
2018-05-16T18:39:40.971Z,20.47
2018-05-16T18:42:22.170Z,19.40
2018-05-16T18:45:10.007Z,19.37
2018-05-16T18:47:51.661Z,20.40
2018-05-16T18:50:33.617Z,22.33
2018-05-16T18:53:15.412Z,23.03
2018-05-16T18:55:55.826Z,22.37
2018-05-16T18:58:41.185Z,21.37
2018-05-16T19:01:22.430Z,22.80
2018-05-16T19:04:05.681Z,22.87
2018-05-16T19:06:46.101Z,22.53
2018-05-16T19:09:28.034Z,29.80
2018-05-16T19:12:09.239Z,23.33
2018-05-16T19:14:50.525Z,21.50
2018-05-16T19:17:30.828Z,25.27
2018-05-16T19:20:11.174Z,23.93
2018-05-16T19:22:52.680Z,26.40
2018-05-16T19:25:34.548Z,28.80
2018-05-16T19:28:15.042Z,26.57
2018-05-16T19:30:56.443Z,22.53
2018-05-16T19:33:41.625Z,22.40
2018-05-16T19:36:22.597Z,17.93
2018-05-16T19:39:03.645Z,20.13
2018-05-16T19:41:45.095Z,18.43
2018-05-16T19:44:25.491Z,16.47
2018-05-16T19:47:06.996Z,14.63
2018-05-16T19:50:05.961Z,12.07
2018-05-16T19:52:46.421Z,11.17
2018-05-16T19:55:27.841Z,10.23
2018-05-16T19:58:08.736Z,10.73
2018-05-16T20:00:52.513Z,10.17
2018-05-16T20:03:33.613Z,7.47
2018-05-16T20:06:15.123Z,8.10
2018-05-16T20:08:55.456Z,6.97
2018-05-16T20:11:36.098Z,6.97
2018-05-16T20:14:16.416Z,10.27
2018-05-16T20:16:57.513Z,8.60
2018-05-16T20:19:37.995Z,8.03
2018-05-16T20:22:19.190Z,8.73
2018-05-16T20:25:00.570Z,7.03
2018-05-16T20:27:41.476Z,6.73
2018-05-16T20:30:27.117Z,6.90
2018-05-16T20:33:07.987Z,7.93
2018-05-16T20:35:48.312Z,7.57
2018-05-16T20:38:29.636Z,7.00
2018-05-16T20:41:11.854Z,6.77
2018-05-16T20:43:54.317Z,7.67
2018-05-16T20:46:36.733Z,5.60
2018-05-16T20:49:17.618Z,6.20
2018-05-16T20:52:00.161Z,6.10
2018-05-16T20:54:45.565Z,7.13
2018-05-16T20:57:26.851Z,6.17
2018-05-16T21:00:21.987Z,7.90
2018-05-16T21:03:02.309Z,6.43
2018-05-16T21:05:43.960Z,5.57
2018-05-16T21:08:24.963Z,5.57
2018-05-16T21:11:22.233Z,6.53
2018-05-16T21:14:02.984Z,5.67
2018-05-16T21:16:52.660Z,7.13
2018-05-16T21:19:33.888Z,5.67
2018-05-16T21:22:20.340Z,5.30
2018-05-16T21:25:03.888Z,5.87
2018-05-16T21:27:48.937Z,5.27
2018-05-16T21:30:43.050Z,5.80
2018-05-16T21:33:26.644Z,6.77
2018-05-16T21:36:10.252Z,5.90
2018-05-16T21:38:53.796Z,5.33
2018-05-16T21:41:40.106Z,7.13
2018-05-16T21:44:24.074Z,5.90
2018-05-16T21:47:05.985Z,6.47
2018-05-16T21:49:46.365Z,7.53
2018-05-16T21:52:26.719Z,5.63
2018-05-16T21:55:08.178Z,5.40
2018-05-16T21:57:48.654Z,5.27
2018-05-16T22:00:33.150Z,4.97
2018-05-16T22:03:14.406Z,5.83
2018-05-16T22:05:56.055Z,5.67
2018-05-16T22:08:37.458Z,6.80
2018-05-16T22:11:19.302Z,6.20
2018-05-16T22:13:59.757Z,4.80
2018-05-16T22:16:40.101Z,5.40
2018-05-16T22:19:21.078Z,6.07
2018-05-16T22:22:01.678Z,5.67
2018-05-16T22:24:42.923Z,5.70
2018-05-16T22:27:24.745Z,5.27
2018-05-16T22:30:06.369Z,5.40
2018-05-16T22:32:52.233Z,5.37
2018-05-16T22:35:43.075Z,7.63
2018-05-16T22:38:31.769Z,6.00
2018-05-16T22:41:19.189Z,7.03
2018-05-16T22:44:11.321Z,5.27
2018-05-16T22:46:52.970Z,5.40
2018-05-16T22:49:33.202Z,5.30
2018-05-16T22:52:13.585Z,5.87
2018-05-16T22:54:56.278Z,5.93
2018-05-16T22:57:36.708Z,5.67
2018-05-16T23:00:21.905Z,5.73
2018-05-16T23:03:02.289Z,5.60
2018-05-16T23:05:44.525Z,5.13
2018-05-16T23:08:25.711Z,5.60
2018-05-16T23:11:06.734Z,5.90
2018-05-16T23:13:47.271Z,7.23
2018-05-16T23:16:27.784Z,6.57
2018-05-16T23:19:09.172Z,8.77
2018-05-16T23:21:49.363Z,5.53
2018-05-16T23:24:33.904Z,5.43
2018-05-16T23:27:14.722Z,4.97
2018-05-16T23:29:56.442Z,5.53
2018-05-16T23:32:36.793Z,5.57
2018-05-16T23:35:17.950Z,6.87
2018-05-16T23:37:58.450Z,5.47
2018-05-16T23:40:39.753Z,6.37
2018-05-16T23:43:22.012Z,5.70
2018-05-16T23:46:02.638Z,6.10
2018-05-16T23:48:44.345Z,7.70
2018-05-16T23:51:33.228Z,6.03
2018-05-16T23:54:13.701Z,5.87
2018-05-16T23:56:55.274Z,7.37
2018-05-16T23:59:36.549Z,6.40
